Terminal Aerodrome Forecast
Issued by NWS

Home | Current Version | Previous Version | Text Only | Print | Product List | Glossary On
Versions: 1 2 3 4 5 6 7 8 9 10 11 12 13 14 15 16 17 18 19 20 21 22 23
147
FTUS44 KLZK 300258 AAA
TAFLIT
TAF AMD
KLIT 300258Z 3003/3024 12005KT P6SM VCSH FEW050 SCT100 BKN250
     FM300800 VRB04KT 5SM BR FEW005 SCT030 BKN050
     FM301200 VRB04KT P6SM VCSH SCT035 BKN050
     FM301800 24006KT P6SM VCTS SCT040CB BKN250=

USA.gov is the U.S. government's official web portal to all federal, state and local government web resources and services.